Time;durP1;ratioP1;P1;durP2;ratioP2;P2;SDS_P1;SDS_P2;PMS_P1;PMS_P2;Temp;Humidity;BMP_temperature;BMP_pressure;BME280_temperature;BME280_humidity;BME280_pressure;Samples;Min_cycle;Max_cycle;Signal;HPM_P1;HPM_P2
2024/03/08 00:00:34;;;;;;;26.57;18.07;;;2.90;99.90;;;;;;5020765;28;20205;-87
2024/03/08 00:03:01;;;;;;;23.53;17.20;;;2.90;99.90;;;;;;5038715;28;20171;-86
2024/03/08 00:05:27;;;;;;;34.27;18.73;;;2.90;99.90;;;;;;5020408;28;20207;-86
2024/03/08 00:07:53;;;;;;;28.80;19.33;;;2.80;99.90;;;;;;5021256;28;20203;-86
2024/03/08 00:10:20;;;;;;;27.80;18.00;;;2.80;99.90;;;;;;5025462;28;20188;-86
2024/03/08 00:12:47;;;;;;;25.20;18.30;;;2.70;99.90;;;;;;5049954;28;20254;-86
2024/03/08 00:15:14;;;;;;;27.67;18.87;;;2.70;99.90;;;;;;5031739;28;20630;-87
2024/03/08 00:17:40;;;;;;;24.57;17.83;;;2.60;99.90;;;;;;5027987;28;20443;-86
2024/03/08 00:20:10;;;;;;;26.67;19.27;;;2.60;99.90;;;;;;5030196;28;20205;-86
2024/03/08 00:22:39;;;;;;;24.33;18.40;;;2.50;99.90;;;;;;5022986;28;20172;-86
2024/03/08 00:25:09;;;;;;;27.80;18.30;;;2.50;99.90;;;;;;5041902;28;20208;-86
2024/03/08 00:27:35;;;;;;;27.50;19.00;;;2.40;99.90;;;;;;5023064;28;20167;-86
2024/03/08 00:30:01;;;;;;;28.03;19.17;;;2.50;99.90;;;;;;5022713;28;20670;-86
2024/03/08 00:32:27;;;;;;;27.50;19.37;;;2.40;99.90;;;;;;5021972;28;20176;-86
2024/03/08 00:34:54;;;;;;;28.67;19.37;;;2.40;99.90;;;;;;5003057;28;20198;-86
2024/03/08 00:37:21;;;;;;;25.30;18.50;;;2.50;99.90;;;;;;5024125;28;20183;-86
2024/03/08 00:39:47;;;;;;;29.47;19.33;;;2.40;99.90;;;;;;5029629;28;20262;-86
2024/03/08 00:42:14;;;;;;;25.80;18.33;;;2.40;99.90;;;;;;5004708;28;20251;-86
2024/03/08 00:44:39;;;;;;;25.57;18.80;;;2.40;99.90;;;;;;5000547;28;20629;-86
2024/03/08 00:47:05;;;;;;;30.60;20.27;;;2.50;99.90;;;;;;4999895;28;20202;-89
2024/03/08 00:49:32;;;;;;;31.60;19.63;;;2.40;99.90;;;;;;5000260;28;20172;-86
2024/03/08 00:51:58;;;;;;;31.60;20.63;;;2.40;99.90;;;;;;4999641;28;20251;-86
2024/03/08 00:54:23;;;;;;;29.10;20.10;;;2.50;99.90;;;;;;4999374;28;20179;-87
2024/03/08 00:56:49;;;;;;;28.30;19.60;;;2.40;99.90;;;;;;4979809;28;20640;-86
2024/03/08 00:59:14;;;;;;;26.37;19.37;;;2.40;99.90;;;;;;5030628;28;20188;-86
2024/03/08 01:01:41;;;;;;;23.87;18.43;;;2.40;99.90;;;;;;5037722;28;20207;-86
2024/03/08 01:04:08;;;;;;;29.80;18.73;;;2.40;99.90;;;;;;5020156;28;20176;-86
2024/03/08 01:06:34;;;;;;;29.37;19.90;;;2.40;99.90;;;;;;5037108;28;20235;-86
2024/03/08 01:09:00;;;;;;;25.57;17.87;;;2.40;99.90;;;;;;5019141;28;20658;-86
2024/03/08 01:11:27;;;;;;;24.30;18.50;;;2.40;99.90;;;;;;5019499;28;20694;-86
2024/03/08 01:13:53;;;;;;;26.43;18.73;;;2.40;99.90;;;;;;5003666;28;20179;-86
2024/03/08 01:16:21;;;;;;;30.30;19.13;;;2.30;99.90;;;;;;5019686;28;20186;-86
2024/03/08 01:18:47;;;;;;;25.73;18.67;;;2.40;99.90;;;;;;5037495;28;20182;-86
2024/03/08 01:21:12;;;;;;;27.90;19.50;;;2.40;99.90;;;;;;5019482;28;20199;-86
2024/03/08 01:23:38;;;;;;;29.33;19.27;;;2.30;99.90;;;;;;5018835;28;20180;-86
2024/03/08 01:26:04;;;;;;;26.77;18.13;;;2.30;99.90;;;;;;5018765;28;20203;-87
2024/03/08 01:28:30;;;;;;;24.47;18.47;;;2.30;99.90;;;;;;5017835;28;20226;-86
2024/03/08 01:30:56;;;;;;;28.20;18.10;;;2.30;99.90;;;;;;5014694;28;20200;-86
2024/03/08 01:33:26;;;;;;;23.87;18.73;;;2.30;99.90;;;;;;5016606;28;20180;-86
2024/03/08 01:35:54;;;;;;;26.73;19.60;;;2.30;99.90;;;;;;5016217;28;20184;-86
2024/03/08 01:38:23;;;;;;;27.17;19.40;;;2.30;99.90;;;;;;5002203;28;20184;-86
2024/03/08 01:40:51;;;;;;;27.83;18.83;;;2.40;99.90;;;;;;5009411;28;20564;-86
2024/03/08 01:43:29;;;;;;;28.37;17.63;;;2.40;99.90;;;;;;4993465;28;20251;-86
2024/03/08 01:45:57;;;;;;;25.27;18.67;;;2.40;99.90;;;;;;5005962;28;20246;-86
2024/03/08 01:48:23;;;;;;;27.97;19.10;;;2.30;99.90;;;;;;4997549;28;20551;-87
2024/03/08 01:50:52;;;;;;;25.47;18.87;;;2.30;99.90;;;;;;4998331;28;20260;-86
2024/03/08 01:53:19;;;;;;;29.40;19.03;;;2.30;99.90;;;;;;4997077;28;20172;-86
2024/03/08 01:55:49;;;;;;;28.63;18.70;;;2.20;99.90;;;;;;5024138;28;20249;-87
2024/03/08 01:58:15;;;;;;;27.00;19.17;;;2.20;99.90;;;;;;5038024;28;20170;-85
2024/03/08 02:00:43;;;;;;;29.03;19.67;;;2.20;99.90;;;;;;5019898;28;20572;-86
2024/03/08 02:03:10;;;;;;;29.53;19.30;;;2.20;99.90;;;;;;5016261;28;20209;-86
2024/03/08 02:08:58;;;;;;;32.20;20.33;;;2.10;99.90;;;;;;5020286;28;20174;-87
2024/03/08 02:11:24;;;;;;;28.40;19.53;;;2.00;99.90;;;;;;4997535;28;20207;-86
2024/03/08 02:13:51;;;;;;;31.43;18.43;;;2.00;99.90;;;;;;4995376;28;20196;-87
2024/03/08 02:16:22;;;;;;;25.73;18.67;;;2.00;99.90;;;;;;4995353;28;20628;-86
2024/03/08 02:18:50;;;;;;;28.77;19.23;;;2.00;99.90;;;;;;5003447;28;20180;-87
2024/03/08 02:21:21;;;;;;;30.07;19.63;;;1.90;99.90;;;;;;4995564;28;20223;-87
2024/03/08 02:23:47;;;;;;;28.93;18.50;;;1.90;99.90;;;;;;4995806;28;20195;-86
2024/03/08 02:26:12;;;;;;;27.60;18.70;;;1.80;99.90;;;;;;5003165;28;20467;-86
2024/03/08 02:28:39;;;;;;;26.13;19.27;;;1.70;99.90;;;;;;5028601;28;20377;-87
2024/03/08 02:31:07;;;;;;;31.80;20.13;;;1.80;99.90;;;;;;4995212;28;20196;-86
2024/03/08 02:33:34;;;;;;;25.27;18.60;;;1.80;99.90;;;;;;4995434;28;20226;-86
2024/03/08 02:36:00;;;;;;;37.57;20.47;;;1.80;99.90;;;;;;4994844;28;20239;-86
2024/03/08 02:38:26;;;;;;;29.50;20.30;;;1.80;99.90;;;;;;4994797;28;20604;-87
2024/03/08 02:40:53;;;;;;;31.53;20.00;;;1.80;99.90;;;;;;4996518;28;20211;-87
2024/03/08 02:43:24;;;;;;;29.37;20.60;;;1.70;99.90;;;;;;4994801;28;20180;-88
2024/03/08 02:45:50;;;;;;;28.10;19.30;;;1.70;99.90;;;;;;4994717;28;20747;-87
2024/03/08 02:48:16;;;;;;;27.23;20.07;;;1.70;99.90;;;;;;4994741;28;20275;-86
2024/03/08 02:50:45;;;;;;;29.47;20.47;;;1.60;99.90;;;;;;4994521;28;20310;-86
2024/03/08 02:53:11;;;;;;;28.17;19.53;;;1.60;99.90;;;;;;5002975;28;20215;-86
2024/03/08 02:55:39;;;;;;;31.10;21.50;;;1.60;99.90;;;;;;4995204;28;20184;-87
2024/03/08 02:58:04;;;;;;;29.70;20.00;;;1.60;99.90;;;;;;5001594;28;20214;-86
2024/03/08 03:00:31;;;;;;;35.10;20.83;;;1.60;99.90;;;;;;4994928;28;20252;-86
2024/03/08 03:02:57;;;;;;;29.63;19.93;;;1.50;99.90;;;;;;4994718;28;20180;-86
2024/03/08 03:05:26;;;;;;;32.37;20.17;;;1.50;99.90;;;;;;5001275;28;20563;-86
2024/03/08 03:07:51;;;;;;;30.47;20.80;;;1.40;99.90;;;;;;5003900;28;20188;-86
2024/03/08 03:10:17;;;;;;;31.80;21.57;;;1.40;99.90;;;;;;5000594;28;20287;-86
2024/03/08 03:12:44;;;;;;;33.63;21.37;;;1.40;99.90;;;;;;4995008;28;20272;-86
2024/03/08 03:15:13;;;;;;;34.30;21.30;;;1.30;99.90;;;;;;5003223;28;20711;-87
2024/03/08 03:17:40;;;;;;;32.43;20.53;;;1.20;99.90;;;;;;4994889;28;20212;-86
2024/03/08 03:20:12;;;;;;;32.00;20.10;;;1.30;99.90;;;;;;4995454;28;20196;-86
2024/03/08 03:22:38;;;;;;;29.13;20.17;;;1.30;99.90;;;;;;4999752;28;20671;-86
2024/03/08 03:25:06;;;;;;;30.83;20.30;;;1.30;99.90;;;;;;4997215;28;20208;-86
2024/03/08 03:27:32;;;;;;;34.13;21.93;;;1.30;99.90;;;;;;4995314;28;20655;-87
2024/03/08 03:29:58;;;;;;;34.73;21.93;;;1.30;99.90;;;;;;4995400;28;20355;-86
2024/03/08 03:32:23;;;;;;;35.53;21.47;;;1.30;99.90;;;;;;4995397;28;20199;-86
2024/03/08 03:34:52;;;;;;;31.00;22.73;;;1.30;99.90;;;;;;4994918;28;20184;-86
2024/03/08 03:37:19;;;;;;;30.50;21.83;;;1.30;99.90;;;;;;5003775;28;20180;-86
2024/03/08 03:39:53;;;;;;;32.67;22.37;;;1.40;99.90;;;;;;4999008;28;20643;-86
2024/03/08 03:42:19;;;;;;;33.10;22.20;;;1.40;99.90;;;;;;4996883;28;20176;-86
2024/03/08 03:44:48;;;;;;;31.93;22.20;;;1.40;99.90;;;;;;5002976;28;20230;-86
2024/03/08 03:47:15;;;;;;;36.40;22.80;;;1.40;99.90;;;;;;4995033;28;20423;-86
2024/03/08 03:49:41;;;;;;;36.60;22.60;;;1.40;99.90;;;;;;4994782;28;20258;-87
2024/03/08 03:52:07;;;;;;;31.33;20.30;;;1.40;99.90;;;;;;4999363;28;20222;-86
2024/03/08 03:54:33;;;;;;;32.20;22.00;;;1.40;99.90;;;;;;5005984;28;20265;-86
2024/03/08 03:57:00;;;;;;;32.07;20.03;;;1.30;99.90;;;;;;4998458;28;20711;-86
2024/03/08 03:59:26;;;;;;;29.23;20.57;;;1.30;99.90;;;;;;5002718;28;20184;-89
2024/03/08 04:01:53;;;;;;;32.30;21.33;;;1.30;99.90;;;;;;4988693;28;20296;-86
2024/03/08 04:04:19;;;;;;;33.57;22.33;;;1.30;99.90;;;;;;4994953;28;20188;-87
2024/03/08 04:06:44;;;;;;;31.53;21.37;;;1.30;99.90;;;;;;5012659;28;20176;-86
2024/03/08 04:09:12;;;;;;;30.60;21.23;;;1.30;99.90;;;;;;4994927;28;20184;-86
2024/03/08 04:11:38;;;;;;;29.53;21.73;;;1.30;99.90;;;;;;5005702;28;20206;-86
2024/03/08 04:14:04;;;;;;;34.07;21.60;;;1.30;99.90;;;;;;4998423;28;20172;-86
2024/03/08 04:16:31;;;;;;;34.13;21.87;;;1.30;99.90;;;;;;4999586;28;20716;-87
2024/03/08 04:18:57;;;;;;;32.13;22.73;;;1.30;99.90;;;;;;5003481;28;20187;-86
2024/03/08 04:21:23;;;;;;;34.73;21.50;;;1.40;99.90;;;;;;5010910;28;20401;-87
2024/03/08 04:23:48;;;;;;;32.60;22.03;;;1.30;99.90;;;;;;5000287;28;20180;-86
2024/03/08 04:26:14;;;;;;;33.47;20.83;;;1.40;99.90;;;;;;4998666;28;20686;-86
2024/03/08 04:28:40;;;;;;;32.33;21.73;;;1.40;99.90;;;;;;4998636;28;20188;-87
2024/03/08 04:31:06;;;;;;;36.67;21.47;;;1.40;99.90;;;;;;5006625;28;20195;-87
2024/03/08 04:33:32;;;;;;;35.03;22.03;;;1.40;99.90;;;;;;5008098;28;20207;-86
2024/03/08 04:35:59;;;;;;;41.17;22.13;;;1.40;99.90;;;;;;4999096;28;20183;-87
2024/03/08 04:38:25;;;;;;;32.57;20.33;;;1.40;99.90;;;;;;5017215;28;20177;-87
2024/03/08 04:40:50;;;;;;;33.80;21.43;;;1.40;99.90;;;;;;5000296;28;20235;-87
2024/03/08 04:43:18;;;;;;;30.20;19.20;;;1.50;99.90;;;;;;5004528;28;20230;-87
2024/03/08 04:45:44;;;;;;;30.97;21.00;;;1.50;99.90;;;;;;5000504;28;20217;-86
2024/03/08 04:48:11;;;;;;;28.80;20.90;;;1.40;99.90;;;;;;5009729;28;20175;-87
2024/03/08 04:50:38;;;;;;;31.33;20.60;;;1.40;99.90;;;;;;5001556;28;20219;-87
2024/03/08 04:53:07;;;;;;;34.07;22.40;;;1.40;99.90;;;;;;4997922;28;20173;-87
2024/03/08 04:55:34;;;;;;;30.53;20.77;;;1.40;99.90;;;;;;4997933;28;20211;-86
2024/03/08 04:57:59;;;;;;;35.10;21.47;;;1.50;99.90;;;;;;4997903;28;20211;-87
2024/03/08 05:00:25;;;;;;;31.87;20.50;;;1.40;99.90;;;;;;4999142;28;20629;-87
2024/03/08 05:02:53;;;;;;;36.33;21.03;;;1.60;99.90;;;;;;5018664;28;20188;-86
2024/03/08 05:05:19;;;;;;;30.77;21.33;;;1.40;99.90;;;;;;5006749;28;20204;-87
2024/03/08 05:07:45;;;;;;;34.37;22.23;;;1.40;99.90;;;;;;5001353;28;20202;-87
2024/03/08 05:10:11;;;;;;;28.80;19.77;;;1.50;99.90;;;;;;5004674;28;20239;-87
2024/03/08 05:12:38;;;;;;;31.20;20.33;;;1.50;99.90;;;;;;4998171;28;20740;-87
2024/03/08 05:15:07;;;;;;;26.70;21.07;;;1.40;99.90;;;;;;4995786;28;20180;-87
2024/03/08 05:17:32;;;;;;;32.70;21.23;;;1.40;99.90;;;;;;5005380;28;20657;-87
2024/03/08 05:19:58;;;;;;;31.13;20.27;;;1.50;99.90;;;;;;4998987;28;20190;-87
2024/03/08 05:22:24;;;;;;;30.30;21.20;;;1.40;99.90;;;;;;5016053;28;20192;-87
2024/03/08 05:24:49;;;;;;;33.07;20.17;;;1.30;99.90;;;;;;5014602;28;20563;-86
2024/03/08 05:27:15;;;;;;;35.30;21.20;;;1.30;99.90;;;;;;4999392;28;20176;-87
2024/03/08 05:29:40;;;;;;;30.17;21.30;;;1.30;99.90;;;;;;4999317;28;20234;-87
2024/03/08 05:32:07;;;;;;;30.87;21.27;;;1.30;99.90;;;;;;5002837;28;20808;-87
2024/03/08 05:34:34;;;;;;;34.97;21.77;;;1.40;99.90;;;;;;5020596;28;20235;-86
2024/03/08 05:37:00;;;;;;;33.87;20.67;;;1.30;99.90;;;;;;4999047;28;20535;-86
2024/03/08 05:39:25;;;;;;;32.47;20.57;;;1.30;99.90;;;;;;5006596;28;20195;-87
2024/03/08 05:41:51;;;;;;;33.77;20.93;;;1.40;99.90;;;;;;4999890;28;20697;-87
2024/03/08 05:44:17;;;;;;;27.47;19.60;;;1.30;99.90;;;;;;4997807;28;20219;-86
2024/03/08 05:46:44;;;;;;;32.87;21.07;;;1.30;99.90;;;;;;5005837;28;20179;-87
2024/03/08 05:49:10;;;;;;;35.87;20.73;;;1.30;99.90;;;;;;5002550;28;20171;-86
2024/03/08 05:51:37;;;;;;;32.47;22.03;;;1.30;99.90;;;;;;5002976;28;20218;-87
2024/03/08 05:54:11;;;;;;;32.40;21.93;;;1.30;99.90;;;;;;4999176;28;20299;-87
2024/03/08 05:56:38;;;;;;;36.87;20.80;;;1.30;99.90;;;;;;5004145;28;20184;-87
2024/03/08 05:59:03;;;;;;;34.50;21.13;;;1.30;99.90;;;;;;5002891;28;20330;-86
2024/03/08 06:01:29;;;;;;;37.53;22.63;;;1.30;99.90;;;;;;5004570;28;20227;-87
2024/03/08 06:03:56;;;;;;;34.63;22.30;;;1.30;99.90;;;;;;5020888;28;20188;-87
2024/03/08 06:06:26;;;;;;;29.60;21.33;;;1.30;99.90;;;;;;5007875;28;20345;-87
2024/03/08 06:08:52;;;;;;;33.00;20.37;;;1.40;99.90;;;;;;5002201;28;20211;-87
2024/03/08 06:11:19;;;;;;;28.57;21.23;;;1.30;99.90;;;;;;4999524;28;20227;-86
2024/03/08 06:13:46;;;;;;;32.80;20.97;;;1.40;99.90;;;;;;4999748;28;20281;-87
2024/03/08 06:16:13;;;;;;;34.40;21.73;;;1.40;99.90;;;;;;4999996;28;20188;-86
2024/03/08 06:18:41;;;;;;;32.23;20.17;;;1.40;99.90;;;;;;5001397;28;20180;-86
2024/03/08 06:21:14;;;;;;;34.97;21.67;;;1.40;99.90;;;;;;5011608;28;20196;-90
2024/03/08 06:23:47;;;;;;;34.37;22.23;;;1.40;99.90;;;;;;5032500;28;20186;-89
2024/03/08 06:26:13;;;;;;;34.33;22.13;;;1.50;99.90;;;;;;5030486;28;20199;-88
2024/03/08 06:28:40;;;;;;;35.70;21.83;;;1.50;99.90;;;;;;5009288;28;20188;-86
2024/03/08 06:31:06;;;;;;;32.87;21.73;;;1.60;99.90;;;;;;5017367;28;20241;-89
2024/03/08 06:33:32;;;;;;;33.83;22.33;;;1.60;99.90;;;;;;5026480;28;20221;-87
2024/03/08 06:35:59;;;;;;;36.27;21.50;;;1.60;99.90;;;;;;5010110;28;20196;-87
2024/03/08 06:38:25;;;;;;;34.93;21.70;;;1.70;99.90;;;;;;5004447;28;20188;-86
2024/03/08 06:40:51;;;;;;;33.43;20.83;;;1.70;99.90;;;;;;5010783;28;20214;-87
2024/03/08 06:43:18;;;;;;;32.57;21.50;;;1.80;99.90;;;;;;5003419;28;20206;-86
2024/03/08 06:45:48;;;;;;;31.43;22.27;;;1.80;99.90;;;;;;5001571;28;20204;-86
2024/03/08 06:48:15;;;;;;;33.23;22.33;;;1.90;99.90;;;;;;5021920;28;20172;-86
2024/03/08 06:50:40;;;;;;;31.60;20.50;;;1.90;99.90;;;;;;5017697;28;20212;-86
2024/03/08 06:53:06;;;;;;;35.30;22.30;;;2.00;99.90;;;;;;4998699;28;20187;-86
2024/03/08 06:55:32;;;;;;;36.47;21.60;;;2.00;99.90;;;;;;5021416;28;20197;-86
2024/03/08 06:57:58;;;;;;;39.03;22.17;;;2.00;99.90;;;;;;5000531;28;20274;-86
2024/03/08 07:00:26;;;;;;;35.73;21.27;;;2.20;99.90;;;;;;5000545;28;20227;-87
2024/03/08 07:02:53;;;;;;;33.77;22.33;;;2.20;99.90;;;;;;5001610;28;20265;-87
2024/03/08 07:05:19;;;;;;;33.27;21.97;;;2.30;99.90;;;;;;5020377;28;20275;-86
2024/03/08 07:07:48;;;;;;;44.47;21.20;;;2.40;99.90;;;;;;5018436;28;20184;-86
2024/03/08 07:10:15;;;;;;;32.47;20.63;;;2.50;99.90;;;;;;5011777;28;20244;-86
2024/03/08 07:12:41;;;;;;;32.77;21.53;;;2.60;99.90;;;;;;5018844;28;20256;-86
2024/03/08 07:15:08;;;;;;;35.03;21.67;;;2.90;99.90;;;;;;5027080;28;20184;-86
2024/03/08 07:17:35;;;;;;;32.83;20.73;;;3.30;99.90;;;;;;5006827;28;20204;-88
2024/03/08 07:20:06;;;;;;;29.60;20.13;;;3.70;99.90;;;;;;5012334;28;20190;-87
2024/03/08 07:22:31;;;;;;;30.37;19.57;;;4.10;99.90;;;;;;5007102;28;20188;-88
2024/03/08 07:27:41;;;;;;;29.17;18.37;;;4.90;99.90;;;;;;5019571;28;20183;-88
2024/03/08 07:30:10;;;;;;;27.27;18.70;;;5.30;99.90;;;;;;5000269;28;20181;-88
2024/03/08 07:32:35;;;;;;;25.63;17.47;;;5.50;99.90;;;;;;5007723;28;20251;-88
2024/03/08 07:35:01;;;;;;;29.53;19.20;;;5.70;99.90;;;;;;5017403;28;20188;-88
2024/03/08 07:37:27;;;;;;;26.10;17.90;;;5.90;99.90;;;;;;4999370;28;20527;-88
2024/03/08 07:39:53;;;;;;;22.20;16.47;;;6.00;99.90;;;;;;5001046;28;20273;-88
2024/03/08 07:42:18;;;;;;;25.20;18.90;;;6.00;99.90;;;;;;5001677;28;20211;-87
2024/03/08 07:44:45;;;;;;;25.87;18.30;;;6.20;99.90;;;;;;5003162;28;20204;-88
2024/03/08 07:47:12;;;;;;;31.03;18.97;;;6.40;99.90;;;;;;5008665;28;20172;-87
2024/03/08 07:49:37;;;;;;;23.63;17.17;;;6.60;99.90;;;;;;5016715;28;20196;-87
2024/03/08 07:52:04;;;;;;;26.33;16.83;;;6.80;99.90;;;;;;4988065;28;20250;-89
2024/03/08 07:54:30;;;;;;;24.73;17.50;;;7.00;99.90;;;;;;5012122;28;20210;-86
2024/03/08 07:56:56;;;;;;;24.93;17.00;;;7.00;99.90;;;;;;5005708;28;20180;-87
2024/03/08 07:59:22;;;;;;;23.87;18.50;;;7.10;99.90;;;;;;5022820;28;20176;-88
2024/03/08 08:01:48;;;;;;;24.67;17.33;;;7.50;99.90;;;;;;5012890;28;20302;-88
2024/03/08 08:04:14;;;;;;;26.07;16.70;;;7.70;99.90;;;;;;4972334;28;20179;-87
2024/03/08 08:06:43;;;;;;;28.67;17.10;;;7.90;99.90;;;;;;5005018;28;20713;-87
2024/03/08 08:09:15;;;;;;;25.53;17.03;;;8.00;99.90;;;;;;5003928;28;20180;-88
2024/03/08 08:11:43;;;;;;;23.00;15.80;;;8.10;99.90;;;;;;5004753;28;20204;-88
2024/03/08 08:14:09;;;;;;;26.57;17.50;;;8.20;99.90;;;;;;5004188;28;20259;-87
2024/03/08 08:16:41;;;;;;;25.07;16.03;;;8.10;99.90;;;;;;5010399;28;20183;-88
2024/03/08 08:19:07;;;;;;;22.40;16.60;;;8.40;99.90;;;;;;4989074;28;20195;-87
2024/03/08 08:21:38;;;;;;;24.47;16.63;;;8.90;99.90;;;;;;5007724;28;20208;-88
2024/03/08 08:24:04;;;;;;;20.63;15.27;;;9.30;99.90;;;;;;5013252;28;20180;-87
2024/03/08 08:26:30;;;;;;;21.80;15.90;;;9.60;99.90;;;;;;5002888;28;20270;-87
2024/03/08 08:28:57;;;;;;;20.57;15.37;;;9.80;99.90;;;;;;5002893;28;20267;-87
2024/03/08 08:31:23;;;;;;;22.50;16.13;;;9.80;99.90;;;;;;5006939;28;20199;-87
2024/03/08 08:33:49;;;;;;;23.50;15.93;;;9.90;99.90;;;;;;4986837;28;20279;-86
2024/03/08 08:36:15;;;;;;;21.73;14.87;;;10.20;99.90;;;;;;5020328;28;20172;-87
2024/03/08 08:38:44;;;;;;;24.57;16.27;;;10.30;99.90;;;;;;5002398;28;20184;-86
2024/03/08 08:41:11;;;;;;;19.10;15.00;;;10.40;98.00;;;;;;4986130;28;20280;-87
2024/03/08 08:43:36;;;;;;;20.93;15.23;;;10.50;97.10;;;;;;5008628;28;20288;-86
2024/03/08 08:46:02;;;;;;;20.00;15.23;;;10.10;96.00;;;;;;5037579;28;20207;-86
2024/03/08 08:48:30;;;;;;;23.00;15.10;;;9.90;96.40;;;;;;5022788;28;20206;-87
2024/03/08 08:50:56;;;;;;;23.77;15.37;;;9.80;96.60;;;;;;5009896;28;20216;-88
2024/03/08 08:53:21;;;;;;;20.33;15.33;;;9.80;96.30;;;;;;4999281;28;20196;-87
2024/03/08 08:55:48;;;;;;;21.87;15.20;;;9.70;96.80;;;;;;5001665;28;20273;-88
2024/03/08 08:58:13;;;;;;;21.80;14.90;;;9.90;97.20;;;;;;5001434;28;20176;-88
2024/03/08 09:00:40;;;;;;;20.20;13.87;;;10.20;97.10;;;;;;5002617;28;20744;-90
2024/03/08 09:03:08;;;;;;;20.33;14.47;;;10.40;94.80;;;;;;5000658;28;20538;-87
2024/03/08 09:05:37;;;;;;;22.87;14.50;;;10.50;94.50;;;;;;5021857;28;20239;-91
2024/03/08 09:08:03;;;;;;;20.23;13.73;;;10.70;93.60;;;;;;5001748;28;20176;-85
2024/03/08 09:10:29;;;;;;;17.43;13.70;;;10.80;93.00;;;;;;5004444;28;20238;-87
2024/03/08 09:12:54;;;;;;;23.37;14.20;;;11.00;93.60;;;;;;5009582;28;20668;-85
2024/03/08 09:15:21;;;;;;;21.87;14.60;;;11.20;91.30;;;;;;5019143;28;20266;-88
2024/03/08 09:17:48;;;;;;;19.50;14.80;;;10.90;90.30;;;;;;5001813;28;20206;-87
2024/03/08 09:20:14;;;;;;;21.33;14.40;;;10.80;91.40;;;;;;5000759;28;20681;-86
2024/03/08 09:22:45;;;;;;;19.60;13.80;;;10.70;90.10;;;;;;5008376;28;20262;-85
2024/03/08 09:25:11;;;;;;;18.37;14.10;;;10.80;90.00;;;;;;5004622;28;20597;-87
2024/03/08 09:27:37;;;;;;;20.30;13.63;;;10.90;90.10;;;;;;5009335;28;20267;-86
2024/03/08 09:30:04;;;;;;;20.23;13.73;;;10.90;89.40;;;;;;5023295;28;20176;-86
2024/03/08 09:32:29;;;;;;;21.63;14.10;;;10.90;89.70;;;;;;4993428;28;20204;-86
2024/03/08 09:34:56;;;;;;;19.17;13.47;;;11.00;90.30;;;;;;5007893;28;20732;-87
2024/03/08 09:37:23;;;;;;;17.43;13.87;;;11.30;88.90;;;;;;5020386;28;20192;-87
2024/03/08 09:39:48;;;;;;;19.30;13.13;;;11.10;84.90;;;;;;5045502;28;20239;-87
2024/03/08 09:42:17;;;;;;;21.27;13.60;;;11.00;86.90;;;;;;5024295;28;20194;-87
2024/03/08 09:44:48;;;;;;;18.70;13.40;;;11.00;88.50;;;;;;5025806;28;20204;-89
2024/03/08 09:47:14;;;;;;;25.30;14.33;;;11.10;87.40;;;;;;5026212;28;20168;-86
2024/03/08 09:49:41;;;;;;;23.50;14.13;;;11.10;88.00;;;;;;5005336;28;20196;-86
2024/03/08 09:52:07;;;;;;;20.30;14.07;;;10.90;85.30;;;;;;5040993;28;20235;-87
2024/03/08 09:54:34;;;;;;;17.50;13.73;;;10.70;85.10;;;;;;5028788;28;20168;-86
2024/03/08 09:56:59;;;;;;;19.10;13.80;;;10.80;88.20;;;;;;5020878;28;20164;-85
2024/03/08 09:59:43;;;;;;;17.77;13.03;;;10.90;85.60;;;;;;5019660;28;20232;-86
2024/03/08 10:02:14;;;;;;;22.00;14.27;;;11.20;89.40;;;;;;5045819;28;20251;-86
2024/03/08 10:04:46;;;;;;;16.27;12.03;;;11.20;85.30;;;;;;5037716;28;20207;-86
2024/03/08 10:07:12;;;;;;;17.30;12.77;;;11.10;83.50;;;;;;5037266;28;20168;-86
2024/03/08 10:09:38;;;;;;;20.20;13.27;;;11.20;87.50;;;;;;5024709;28;20164;-87
2024/03/08 10:12:07;;;;;;;16.40;12.17;;;11.50;84.70;;;;;;5022970;28;20202;-87
2024/03/08 10:14:32;;;;;;;18.67;12.53;;;11.40;83.70;;;;;;5004884;28;20168;-87
2024/03/08 10:16:59;;;;;;;13.77;11.33;;;11.30;83.60;;;;;;5014127;28;20199;-88
2024/03/08 10:19:26;;;;;;;16.53;12.33;;;11.20;82.00;;;;;;4987218;28;20184;-86
2024/03/08 10:21:56;;;;;;;19.53;13.43;;;11.00;81.30;;;;;;5010493;28;20231;-87
2024/03/08 10:24:26;;;;;;;16.43;12.10;;;11.10;85.80;;;;;;5022855;28;20240;-86
2024/03/08 10:26:53;;;;;;;15.77;12.67;;;11.10;81.80;;;;;;5003208;28;20569;-87
2024/03/08 10:29:19;;;;;;;15.23;11.80;;;11.10;82.20;;;;;;4987818;28;20203;-87
2024/03/08 10:31:45;;;;;;;19.20;12.50;;;11.00;84.00;;;;;;5024315;28;20202;-87
2024/03/08 10:34:11;;;;;;;16.60;12.23;;;11.00;82.00;;;;;;5011745;28;20184;-86
2024/03/08 10:36:37;;;;;;;17.83;12.60;;;11.00;84.70;;;;;;5003026;28;20251;-86
2024/03/08 10:39:08;;;;;;;17.07;11.67;;;11.30;84.10;;;;;;5003179;28;20186;-87
2024/03/08 10:41:37;;;;;;;14.47;11.67;;;11.40;82.10;;;;;;5009726;28;20207;-87
2024/03/08 10:44:12;;;;;;;14.17;11.37;;;11.60;84.20;;;;;;5008768;28;20266;-86
2024/03/08 10:46:44;;;;;;;15.50;11.90;;;12.00;82.60;;;;;;5010072;28;20207;-87
2024/03/08 10:49:17;;;;;;;13.27;10.63;;;12.20;79.90;;;;;;5004416;28;20176;-88
2024/03/08 10:51:45;;;;;;;13.10;10.30;;;12.40;77.60;;;;;;5003587;28;20204;-85
2024/03/08 10:54:17;;;;;;;12.83;11.63;;;12.10;74.70;;;;;;5029357;28;20184;-88
2024/03/08 10:56:43;;;;;;;15.03;9.47;;;11.80;71.00;;;;;;5006544;28;20188;-85
2024/03/08 10:59:10;;;;;;;11.33;9.10;;;11.80;73.50;;;;;;5005182;28;20179;-85
2024/03/08 11:01:37;;;;;;;13.37;9.53;;;11.80;73.60;;;;;;5003355;28;20219;-85
2024/03/08 11:04:04;;;;;;;12.13;9.13;;;11.90;72.40;;;;;;5003193;28;20168;-85
2024/03/08 11:06:55;;;;;;;11.43;9.23;;;11.90;72.10;;;;;;5002858;28;20253;-86
2024/03/08 11:09:31;;;;;;;10.37;9.37;;;12.00;76.30;;;;;;5002549;28;20176;-86
2024/03/08 11:12:32;;;;;;;11.57;8.77;;;12.40;74.30;;;;;;5003327;28;20226;-86
2024/03/08 11:15:11;;;;;;;11.07;9.17;;;12.40;70.70;;;;;;5003561;28;20203;-86
2024/03/08 11:17:45;;;;;;;9.50;8.50;;;12.30;70.00;;;;;;5007732;28;20175;-85
2024/03/08 11:20:16;;;;;;;18.10;8.90;;;12.20;71.40;;;;;;5005320;28;20183;-86
2024/03/08 11:22:51;;;;;;;9.63;7.60;;;12.40;73.10;;;;;;5011607;28;20173;-85
2024/03/08 11:25:45;;;;;;;12.53;9.50;;;12.60;69.70;;;;;;5015772;28;20207;-86
2024/03/08 11:28:18;;;;;;;9.87;8.43;;;12.90;70.80;;;;;;5026975;28;20266;-85
2024/03/08 11:30:48;;;;;;;11.53;9.17;;;13.10;68.70;;;;;;5018432;28;20196;-85
2024/03/08 11:33:16;;;;;;;11.27;9.20;;;13.20;66.30;;;;;;5001045;28;20203;-86
2024/03/08 11:35:45;;;;;;;10.67;9.03;;;13.40;66.60;;;;;;5034572;28;20188;-86
2024/03/08 11:38:13;;;;;;;10.67;8.50;;;13.50;67.90;;;;;;5023797;28;20187;-86
2024/03/08 11:40:39;;;;;;;10.93;9.40;;;13.60;62.50;;;;;;5005487;28;20226;-86
2024/03/08 11:43:07;;;;;;;10.97;8.23;;;13.50;61.40;;;;;;5018097;28;20176;-85
2024/03/08 11:45:36;;;;;;;12.53;9.00;;;13.60;63.30;;;;;;5021827;28;20297;-86
2024/03/08 11:48:03;;;;;;;16.97;9.77;;;13.60;59.90;;;;;;5051283;28;20223;-87
2024/03/08 11:50:29;;;;;;;11.30;9.07;;;13.60;61.50;;;;;;5011594;28;20282;-87
2024/03/08 11:53:02;;;;;;;11.93;9.57;;;13.30;59.30;;;;;;5030886;28;20179;-87
2024/03/08 11:55:29;;;;;;;11.70;9.23;;;13.30;60.00;;;;;;5015719;28;20164;-86
2024/03/08 11:58:08;;;;;;;9.70;8.30;;;13.20;58.10;;;;;;5029844;28;20171;-86
2024/03/08 12:00:38;;;;;;;10.60;8.80;;;13.30;60.10;;;;;;5015845;28;20275;-86
2024/03/08 12:03:05;;;;;;;11.23;9.07;;;13.50;59.40;;;;;;5009580;28;20196;-87
2024/03/08 12:05:33;;;;;;;11.77;9.43;;;13.50;58.50;;;;;;5004167;28;20214;-87
2024/03/08 12:08:01;;;;;;;12.17;9.63;;;13.60;58.50;;;;;;5003850;28;20271;-89
2024/03/08 12:10:28;;;;;;;11.60;9.40;;;13.60;60.20;;;;;;5004779;28;20191;-85
2024/03/08 12:12:55;;;;;;;14.70;9.23;;;13.90;59.00;;;;;;5006345;28;20247;-87
2024/03/08 12:15:23;;;;;;;12.30;9.07;;;14.10;58.60;;;;;;5023258;28;20188;-86
2024/03/08 12:17:50;;;;;;;11.97;9.00;;;14.10;57.20;;;;;;5004325;28;20195;-89
2024/03/08 12:20:17;;;;;;;9.53;8.17;;;14.00;56.60;;;;;;5001239;28;20176;-89
2024/03/08 12:22:44;;;;;;;10.37;8.40;;;14.10;58.50;;;;;;5010140;28;20686;-86
2024/03/08 12:25:14;;;;;;;9.80;8.33;;;14.00;56.10;;;;;;5019752;28;20744;-87
2024/03/08 12:27:41;;;;;;;12.33;9.17;;;14.20;58.40;;;;;;5005090;28;20187;-86
2024/03/08 12:30:27;;;;;;;10.57;8.77;;;14.40;57.30;;;;;;5001748;28;20675;-86
2024/03/08 12:33:00;;;;;;;11.93;9.33;;;14.40;54.60;;;;;;5019216;28;20176;-85
2024/03/08 12:35:30;;;;;;;10.47;8.77;;;14.40;54.30;;;;;;5018809;28;20664;-87
2024/03/08 12:37:57;;;;;;;12.30;8.57;;;14.60;55.90;;;;;;5010181;28;20184;-88
2024/03/08 12:40:27;;;;;;;10.07;8.10;;;14.70;52.80;;;;;;5020668;28;20246;-87
2024/03/08 12:42:53;;;;;;;10.23;8.63;;;14.80;53.70;;;;;;5019101;28;20207;-88